Time;durP1;ratioP1;P1;durP2;ratioP2;P2;SDS_P1;SDS_P2;PMS_P1;PMS_P2;Temp;Humidity;BMP_temperature;BMP_pressure;BME280_temperature;BME280_humidity;BME280_pressure;Samples;Min_cycle;Max_cycle;Signal;HPM_P1;HPM_P2
2024/01/01 00:00:56;;;;;;;10.87;7.20;;;8.00;99.90;;;;;;5094888;28;20208;-62
2024/01/01 00:03:22;;;;;;;12.57;7.27;;;8.00;99.90;;;;;;5095106;28;20185;-62
2024/01/01 00:05:47;;;;;;;12.17;7.20;;;7.90;99.90;;;;;;5095152;28;20196;-61
2024/01/01 00:08:13;;;;;;;10.67;7.43;;;8.00;99.90;;;;;;5094322;28;20669;-61
2024/01/01 00:10:39;;;;;;;11.43;7.03;;;8.00;99.90;;;;;;5094659;28;20288;-62
2024/01/01 00:13:05;;;;;;;11.87;6.87;;;8.00;99.90;;;;;;5095157;28;20642;-62
2024/01/01 00:15:30;;;;;;;10.90;7.40;;;8.10;99.90;;;;;;5094834;28;20238;-61
2024/01/01 00:17:57;;;;;;;12.80;7.03;;;8.10;99.90;;;;;;5094063;28;20208;-62
2024/01/01 00:20:23;;;;;;;12.93;7.00;;;8.20;99.90;;;;;;5094470;28;20668;-62
2024/01/01 00:22:49;;;;;;;8.57;7.00;;;8.20;99.90;;;;;;5095137;28;20173;-61
2024/01/01 00:25:15;;;;;;;13.07;8.13;;;8.10;99.90;;;;;;5075898;28;20218;-61
2024/01/01 00:27:41;;;;;;;12.73;7.80;;;8.10;99.90;;;;;;5094016;28;20217;-62
2024/01/01 00:30:07;;;;;;;17.33;8.87;;;8.10;99.90;;;;;;5094522;28;20238;-61
2024/01/01 00:32:33;;;;;;;10.60;7.77;;;8.20;99.90;;;;;;5095203;28;20176;-61
2024/01/01 00:34:58;;;;;;;11.50;7.63;;;8.20;99.90;;;;;;5095103;28;20180;-62
2024/01/01 00:37:24;;;;;;;15.37;8.77;;;8.20;99.90;;;;;;5094957;28;20204;-61
2024/01/01 00:39:50;;;;;;;15.33;8.37;;;8.10;99.90;;;;;;5094633;28;20199;-61
2024/01/01 00:42:16;;;;;;;11.53;8.67;;;8.20;99.90;;;;;;5094561;28;20755;-61
2024/01/01 00:44:44;;;;;;;13.50;9.20;;;8.20;99.90;;;;;;5094441;28;20246;-61
2024/01/01 00:47:10;;;;;;;11.90;8.60;;;8.20;99.90;;;;;;5094264;28;20205;-62
2024/01/01 00:49:36;;;;;;;9.30;8.27;;;8.20;99.90;;;;;;5094350;28;20192;-61
2024/01/01 00:52:01;;;;;;;15.97;8.73;;;8.20;99.90;;;;;;5094213;28;20177;-61
2024/01/01 00:54:28;;;;;;;12.83;8.47;;;8.20;99.90;;;;;;5093794;28;20235;-61
2024/01/01 00:56:55;;;;;;;15.57;9.33;;;8.20;99.90;;;;;;5093329;28;20217;-62
2024/01/01 00:59:21;;;;;;;16.77;10.80;;;8.20;99.90;;;;;;5093690;28;20195;-61
2024/01/01 01:01:47;;;;;;;22.93;9.80;;;8.20;99.90;;;;;;5094324;28;20641;-61
2024/01/01 01:04:13;;;;;;;13.63;10.17;;;8.20;99.90;;;;;;5093368;28;20226;-62
2024/01/01 01:06:38;;;;;;;18.83;10.90;;;8.20;99.90;;;;;;5094022;28;20225;-61
2024/01/01 01:09:04;;;;;;;14.10;10.77;;;8.20;99.90;;;;;;5093563;28;20185;-61
2024/01/01 01:11:32;;;;;;;17.93;11.83;;;8.10;99.90;;;;;;5094087;28;20184;-62
2024/01/01 01:13:57;;;;;;;20.37;11.50;;;8.10;99.90;;;;;;5093662;28;20177;-62
2024/01/01 01:16:23;;;;;;;19.17;12.40;;;8.10;99.90;;;;;;5094003;28;20254;-61
2024/01/01 01:18:49;;;;;;;17.43;12.93;;;8.10;99.90;;;;;;5093796;28;20613;-61
2024/01/01 01:21:15;;;;;;;19.73;13.40;;;8.10;99.90;;;;;;5093663;28;20209;-61
2024/01/01 01:23:42;;;;;;;24.67;13.40;;;8.10;99.90;;;;;;5093770;28;20185;-61
2024/01/01 01:26:08;;;;;;;23.53;14.13;;;8.10;99.90;;;;;;5093437;28;20355;-61
2024/01/01 01:28:34;;;;;;;22.63;14.00;;;8.10;99.90;;;;;;5093928;28;20283;-61
2024/01/01 01:31:02;;;;;;;18.37;13.47;;;8.10;99.90;;;;;;5093674;28;20642;-61
2024/01/01 01:33:28;;;;;;;22.53;13.63;;;8.10;99.90;;;;;;5093417;28;20181;-61
2024/01/01 01:35:54;;;;;;;20.73;13.17;;;8.00;99.90;;;;;;5093319;28;20191;-62
2024/01/01 01:38:19;;;;;;;21.37;13.30;;;8.00;99.90;;;;;;5093031;28;20196;-62
2024/01/01 01:40:45;;;;;;;18.97;12.83;;;8.00;99.90;;;;;;5093084;28;20200;-61
2024/01/01 01:43:22;;;;;;;20.03;13.07;;;8.10;99.90;;;;;;5093404;28;20540;-61
2024/01/01 01:45:50;;;;;;;18.97;11.73;;;8.10;99.90;;;;;;5093112;28;20189;-61
2024/01/01 01:48:17;;;;;;;18.63;11.90;;;8.00;96.40;;;;;;5093493;28;20220;-62
2024/01/01 01:50:45;;;;;;;20.93;11.47;;;8.10;23.80;;;;;;5075673;28;20185;-61
2024/01/01 01:53:14;;;;;;;19.30;11.90;;;8.10;49.40;;;;;;5080577;28;20189;-61
2024/01/01 01:55:45;;;;;;;18.97;10.37;;;8.10;38.60;;;;;;5075397;28;20245;-62
2024/01/01 01:58:11;;;;;;;15.80;10.80;;;8.10;1.00;;;;;;5093462;28;20239;-62
2024/01/01 02:00:40;;;;;;;19.20;10.60;;;8.00;1.00;;;;;;5093778;28;20205;-61
2024/01/01 02:03:08;;;;;;;12.70;10.13;;;8.00;1.00;;;;;;5093528;28;20181;-61
2024/01/01 02:05:33;;;;;;;20.30;10.13;;;8.00;1.00;;;;;;5093285;28;20164;-61
2024/01/01 02:08:01;;;;;;;15.43;9.03;;;8.00;1.00;;;;;;5093286;28;20208;-61
2024/01/01 02:10:27;;;;;;;18.87;9.87;;;8.00;1.00;;;;;;5093230;28;20173;-62
2024/01/01 02:12:53;;;;;;;13.67;9.30;;;8.00;1.00;;;;;;5094168;28;20176;-61
2024/01/01 02:15:20;;;;;;;12.63;8.30;;;8.00;1.00;;;;;;5075882;28;20718;-62
2024/01/01 02:17:46;;;;;;;10.03;8.27;;;7.90;24.50;;;;;;5096979;28;20201;-62
2024/01/01 02:20:12;;;;;;;11.17;7.97;;;7.90;1.00;;;;;;5097115;28;20632;-62
2024/01/01 02:22:39;;;;;;;13.07;7.80;;;7.90;1.00;;;;;;5097168;28;20174;-62
2024/01/01 02:25:06;;;;;;;14.90;7.70;;;7.90;1.00;;;;;;5096208;28;20192;-61
2024/01/01 02:27:33;;;;;;;10.73;7.33;;;7.90;1.00;;;;;;5096195;28;20301;-61
2024/01/01 02:29:59;;;;;;;12.73;7.00;;;7.90;1.00;;;;;;5097333;28;20179;-61
2024/01/01 02:32:25;;;;;;;12.30;7.53;;;8.00;1.00;;;;;;5097310;28;20575;-61
2024/01/01 02:34:50;;;;;;;11.07;6.93;;;7.90;1.00;;;;;;5096978;28;20192;-63
2024/01/01 02:37:16;;;;;;;11.73;6.33;;;7.90;1.00;;;;;;5096628;28;20246;-62
2024/01/01 02:39:42;;;;;;;10.60;6.40;;;7.90;1.00;;;;;;5096689;28;20347;-61
2024/01/01 02:42:08;;;;;;;13.73;6.70;;;7.90;1.00;;;;;;5097229;28;20220;-62
2024/01/01 02:44:33;;;;;;;9.30;6.30;;;7.90;1.00;;;;;;5096482;28;20247;-61
2024/01/01 02:46:59;;;;;;;12.00;5.80;;;7.90;1.00;;;;;;5096485;28;20559;-61
2024/01/01 02:49:25;;;;;;;10.43;6.03;;;7.90;1.00;;;;;;5096358;28;20255;-62
2024/01/01 02:51:50;;;;;;;8.77;5.67;;;7.90;1.00;;;;;;5096941;28;20188;-62
2024/01/01 02:54:16;;;;;;;8.20;5.67;;;7.80;37.60;;;;;;5077947;28;20185;-61
2024/01/01 02:56:42;;;;;;;9.10;5.50;;;7.80;28.20;;;;;;5096639;28;20220;-62
2024/01/01 02:59:08;;;;;;;12.20;5.90;;;7.80;1.00;;;;;;5096292;28;20264;-62
2024/01/01 03:01:34;;;;;;;12.23;5.93;;;7.80;77.10;;;;;;5096403;28;20201;-61
2024/01/01 03:03:59;;;;;;;12.80;5.63;;;7.80;1.00;;;;;;5095667;28;20173;-61
2024/01/01 03:06:25;;;;;;;10.87;6.07;;;7.80;99.90;;;;;;5095897;28;20750;-61
2024/01/01 03:08:51;;;;;;;11.23;5.70;;;7.70;99.90;;;;;;5096451;28;20629;-61
2024/01/01 03:11:17;;;;;;;9.90;5.60;;;7.60;1.00;;;;;;5095324;28;20189;-61
2024/01/01 03:13:42;;;;;;;13.00;5.57;;;7.30;99.90;;;;;;5095325;28;20188;-61
2024/01/01 03:16:11;;;;;;;6.93;5.13;;;7.20;1.00;;;;;;5095710;28;20624;-61
2024/01/01 03:18:36;;;;;;;12.57;6.30;;;6.90;1.00;;;;;;5095742;28;20193;-61
2024/01/01 03:21:03;;;;;;;9.10;4.97;;;6.70;1.00;;;;;;5095736;28;20200;-60
2024/01/01 03:23:29;;;;;;;7.60;5.20;;;6.40;1.00;;;;;;5077702;28;20185;-61
2024/01/01 03:25:55;;;;;;;8.00;4.43;;;6.20;1.00;;;;;;5095493;28;20276;-60
2024/01/01 03:28:20;;;;;;;12.53;5.33;;;6.10;99.90;;;;;;5095445;28;20311;-61
2024/01/01 03:30:46;;;;;;;8.13;4.90;;;6.00;99.90;;;;;;5095799;28;20207;-61
2024/01/01 03:33:12;;;;;;;9.60;5.73;;;5.90;99.90;;;;;;5096156;28;20553;-61
2024/01/01 03:35:37;;;;;;;10.37;5.10;;;5.90;99.90;;;;;;5095473;28;20188;-60
2024/01/01 03:38:04;;;;;;;13.53;5.57;;;5.90;99.90;;;;;;5095501;28;20205;-61
2024/01/01 03:40:30;;;;;;;9.87;5.33;;;5.80;99.90;;;;;;5095433;28;20216;-61
2024/01/01 03:42:56;;;;;;;11.77;5.33;;;5.80;99.90;;;;;;5095415;28;20558;-61
2024/01/01 03:45:22;;;;;;;12.77;5.23;;;5.80;99.90;;;;;;5094854;28;20193;-61
2024/01/01 03:47:48;;;;;;;10.57;5.40;;;5.80;99.90;;;;;;5095323;28;20208;-61
2024/01/01 03:50:16;;;;;;;7.97;4.93;;;5.80;99.90;;;;;;5095275;28;20188;-61
2024/01/01 03:52:42;;;;;;;10.80;5.70;;;5.80;99.90;;;;;;5095261;28;20185;-61
2024/01/01 03:55:08;;;;;;;5.57;4.90;;;5.80;99.90;;;;;;5095112;28;20269;-61
2024/01/01 03:57:34;;;;;;;8.57;5.10;;;5.80;99.90;;;;;;5095283;28;20217;-61
2024/01/01 04:00:00;;;;;;;13.13;4.90;;;5.80;99.90;;;;;;5095644;28;20197;-62
2024/01/01 04:02:26;;;;;;;8.53;5.77;;;5.80;99.90;;;;;;5095282;28;20634;-60
2024/01/01 04:04:52;;;;;;;8.43;4.93;;;5.80;99.90;;;;;;5095702;28;20196;-61
2024/01/01 04:07:17;;;;;;;8.83;5.07;;;5.80;99.90;;;;;;5094313;28;20269;-61
2024/01/01 04:09:44;;;;;;;11.27;5.37;;;5.80;99.90;;;;;;5094560;28;20181;-61
2024/01/01 04:12:10;;;;;;;7.07;4.83;;;5.80;99.90;;;;;;5094714;28;20260;-61
2024/01/01 04:14:36;;;;;;;9.50;5.23;;;5.90;99.90;;;;;;5094348;28;20284;-61
2024/01/01 04:17:03;;;;;;;9.70;5.60;;;5.90;99.90;;;;;;5094667;28;20216;-61
2024/01/01 04:19:29;;;;;;;11.80;5.50;;;6.00;99.90;;;;;;5094884;28;20267;-62
2024/01/01 04:21:55;;;;;;;9.83;5.37;;;6.00;99.90;;;;;;5094602;28;20224;-61
2024/01/01 04:24:21;;;;;;;13.57;5.90;;;6.00;99.90;;;;;;5094230;28;20225;-62
2024/01/01 04:26:47;;;;;;;12.87;5.97;;;6.00;99.90;;;;;;5094196;28;20690;-61
2024/01/01 04:29:14;;;;;;;11.23;5.57;;;6.10;99.90;;;;;;5094271;28;20550;-61
2024/01/01 04:31:40;;;;;;;16.20;5.90;;;6.10;99.90;;;;;;5094741;28;20177;-61
2024/01/01 04:34:06;;;;;;;10.77;5.90;;;6.20;99.90;;;;;;5094606;28;20184;-61
2024/01/01 04:36:32;;;;;;;12.97;5.70;;;6.20;99.90;;;;;;5094867;28;20203;-61
2024/01/01 04:38:59;;;;;;;12.70;6.33;;;6.30;99.90;;;;;;5094378;28;20264;-61
2024/01/01 04:41:25;;;;;;;14.87;5.87;;;6.30;99.90;;;;;;5094136;28;20184;-61
2024/01/01 04:43:51;;;;;;;13.03;5.87;;;6.40;99.90;;;;;;5094293;28;20181;-61
2024/01/01 04:46:17;;;;;;;13.53;5.63;;;6.40;99.90;;;;;;5076039;28;20564;-61
2024/01/01 04:48:42;;;;;;;17.90;5.70;;;6.40;99.90;;;;;;5094733;28;20215;-61
2024/01/01 04:51:08;;;;;;;13.07;6.13;;;6.40;99.90;;;;;;5094274;28;20284;-62
2024/01/01 04:53:34;;;;;;;18.43;6.47;;;6.50;99.90;;;;;;5094466;28;20215;-61
2024/01/01 04:56:00;;;;;;;14.23;5.70;;;6.50;99.90;;;;;;5093626;28;20190;-62
2024/01/01 04:58:25;;;;;;;15.10;6.23;;;6.50;99.90;;;;;;5093997;28;20181;-61
2024/01/01 05:00:51;;;;;;;15.80;6.77;;;6.50;99.90;;;;;;5093551;28;20181;-62
2024/01/01 05:03:17;;;;;;;15.10;5.70;;;6.60;99.90;;;;;;5093996;28;20185;-61
2024/01/01 05:05:42;;;;;;;16.90;6.40;;;6.60;99.90;;;;;;5093634;28;20170;-61
2024/01/01 05:08:08;;;;;;;12.80;6.10;;;6.70;99.90;;;;;;5094278;28;20735;-61
2024/01/01 05:10:34;;;;;;;16.00;6.00;;;6.60;99.90;;;;;;5094088;28;20599;-61
2024/01/01 05:13:00;;;;;;;15.70;5.87;;;6.70;29.00;;;;;;5093883;28;20258;-61
2024/01/01 05:15:26;;;;;;;17.10;5.87;;;6.70;1.00;;;;;;5093937;28;20271;-61
2024/01/01 05:17:52;;;;;;;13.80;6.07;;;6.70;1.00;;;;;;5093944;28;20205;-61
2024/01/01 05:20:18;;;;;;;10.97;5.40;;;6.70;1.00;;;;;;5094196;28;20187;-61
2024/01/01 05:22:43;;;;;;;13.83;6.30;;;6.80;1.00;;;;;;5094163;28;20181;-61
2024/01/01 05:25:10;;;;;;;15.07;6.00;;;6.80;1.00;;;;;;5094164;28;20193;-62
2024/01/01 05:27:35;;;;;;;15.03;5.40;;;6.80;99.90;;;;;;5093593;28;20213;-61
2024/01/01 05:30:04;;;;;;;19.27;6.00;;;6.80;99.90;;;;;;5093592;28;20272;-63
2024/01/01 05:32:31;;;;;;;14.73;6.00;;;6.80;99.90;;;;;;5093896;28;20238;-61
2024/01/01 05:34:57;;;;;;;16.83;6.40;;;6.90;99.90;;;;;;5093629;28;20182;-61
2024/01/01 05:37:23;;;;;;;18.17;5.87;;;6.90;1.00;;;;;;5093777;28;20197;-61
2024/01/01 05:39:48;;;;;;;13.90;6.57;;;6.90;1.00;;;;;;5093594;28;20250;-61
2024/01/01 05:42:14;;;;;;;18.37;6.37;;;7.00;1.00;;;;;;5093857;28;20264;-62
2024/01/01 05:44:40;;;;;;;11.30;6.33;;;6.90;1.00;;;;;;5092983;28;20233;-61
2024/01/01 05:47:06;;;;;;;19.27;6.17;;;7.00;59.80;;;;;;5074857;28;20698;-61
2024/01/01 05:49:32;;;;;;;15.37;6.27;;;7.10;1.00;;;;;;5093513;28;20252;-61
2024/01/01 05:51:58;;;;;;;13.80;5.80;;;7.10;99.90;;;;;;5097403;28;20187;-62
2024/01/01 05:54:23;;;;;;;13.13;5.80;;;7.10;1.00;;;;;;5097587;28;20185;-61
2024/01/01 05:56:49;;;;;;;20.00;5.97;;;7.10;99.90;;;;;;5097255;28;20220;-62
2024/01/01 05:59:15;;;;;;;13.53;6.33;;;7.10;1.00;;;;;;5097750;28;20282;-61
2024/01/01 06:01:41;;;;;;;19.00;6.40;;;7.20;99.90;;;;;;5098001;28;20542;-61
2024/01/01 06:04:06;;;;;;;14.27;6.03;;;7.20;99.90;;;;;;5097283;28;20646;-61
2024/01/01 06:06:32;;;;;;;25.33;6.50;;;7.30;1.00;;;;;;5097117;28;20223;-61
2024/01/01 06:08:58;;;;;;;16.87;5.80;;;7.30;1.00;;;;;;5097184;28;20637;-61
2024/01/01 06:11:23;;;;;;;17.53;5.73;;;7.30;99.90;;;;;;5097129;28;20554;-61
2024/01/01 06:13:49;;;;;;;20.97;6.27;;;7.40;99.90;;;;;;5096854;28;20663;-61
2024/01/01 06:16:15;;;;;;;12.90;5.50;;;7.40;1.00;;;;;;5097108;28;20204;-62
2024/01/01 06:18:42;;;;;;;15.70;6.63;;;7.40;1.00;;;;;;5096950;28;20217;-62
2024/01/01 06:21:08;;;;;;;13.90;5.77;;;7.40;19.10;;;;;;5097401;28;20238;-62
2024/01/01 06:23:34;;;;;;;15.57;6.00;;;7.40;99.90;;;;;;5097015;28;20189;-62
2024/01/01 06:26:00;;;;;;;15.77;5.93;;;7.50;1.00;;;;;;5096277;28;20177;-61
2024/01/01 06:28:26;;;;;;;19.03;6.13;;;7.50;99.90;;;;;;5096595;28;20204;-61
2024/01/01 06:30:52;;;;;;;12.50;5.87;;;7.50;1.00;;;;;;5097526;28;20204;-61
2024/01/01 06:33:18;;;;;;;11.90;6.17;;;7.50;99.90;;;;;;5097234;28;20180;-61
2024/01/01 06:35:44;;;;;;;14.37;5.93;;;7.50;99.90;;;;;;5097171;28;20181;-61
2024/01/01 06:38:11;;;;;;;16.07;6.70;;;7.50;99.90;;;;;;5097350;28;20653;-61
2024/01/01 06:40:37;;;;;;;12.57;6.07;;;7.50;99.90;;;;;;5096835;28;20607;-61
2024/01/01 06:43:03;;;;;;;16.77;6.90;;;7.50;99.90;;;;;;5096752;28;20189;-61
2024/01/01 06:45:29;;;;;;;22.70;6.40;;;7.50;99.90;;;;;;5096036;28;20281;-61
2024/01/01 06:47:55;;;;;;;14.87;6.10;;;7.50;99.90;;;;;;5095814;28;20227;-61
2024/01/01 06:50:20;;;;;;;14.50;5.73;;;7.60;99.90;;;;;;5095959;28;20275;-62
2024/01/01 06:52:46;;;;;;;10.87;5.80;;;7.60;1.00;;;;;;5095971;28;20174;-61
2024/01/01 06:55:12;;;;;;;16.73;6.43;;;7.70;1.00;;;;;;5096086;28;20189;-61
2024/01/01 06:57:38;;;;;;;18.07;6.57;;;7.70;1.00;;;;;;5096008;28;20220;-62
2024/01/01 07:00:04;;;;;;;19.93;6.30;;;7.70;1.00;;;;;;5097382;28;20181;-62
2024/01/01 07:02:30;;;;;;;11.60;5.83;;;7.70;1.00;;;;;;5095217;28;20173;-62
2024/01/01 07:04:56;;;;;;;16.33;5.90;;;7.70;1.00;;;;;;5095918;28;20530;-61
2024/01/01 07:07:21;;;;;;;16.63;6.20;;;7.70;1.00;;;;;;5096825;28;20677;-62
2024/01/01 07:09:47;;;;;;;13.60;5.77;;;7.70;1.00;;;;;;5096191;28;20244;-62
2024/01/01 07:12:19;;;;;;;15.03;5.87;;;7.70;1.00;;;;;;5095807;28;20243;-61
2024/01/01 07:14:45;;;;;;;11.10;5.30;;;7.70;99.90;;;;;;5095502;28;20640;-61
2024/01/01 07:17:11;;;;;;;13.83;5.63;;;7.60;99.90;;;;;;5095956;28;20205;-61
2024/01/01 07:19:38;;;;;;;14.80;6.37;;;7.60;99.90;;;;;;5095979;28;20595;-61
2024/01/01 07:22:04;;;;;;;12.20;5.73;;;7.60;99.90;;;;;;5095871;28;20740;-62
2024/01/01 07:24:31;;;;;;;10.97;5.50;;;7.60;99.90;;;;;;5095826;28;20177;-61
2024/01/01 07:26:59;;;;;;;12.83;5.87;;;7.60;99.90;;;;;;5095478;28;20209;-61
2024/01/01 07:29:28;;;;;;;11.40;5.70;;;7.60;99.90;;;;;;5095718;28;20187;-61
2024/01/01 07:31:54;;;;;;;19.10;5.97;;;7.60;1.00;;;;;;5095557;28;20256;-62
2024/01/01 07:34:20;;;;;;;14.60;6.23;;;7.60;1.00;;;;;;5095705;28;20169;-61
2024/01/01 07:36:46;;;;;;;11.50;5.40;;;7.50;1.00;;;;;;5095060;28;20204;-62
2024/01/01 07:39:12;;;;;;;16.70;6.10;;;7.40;1.00;;;;;;5096125;28;20208;-61
2024/01/01 07:41:39;;;;;;;11.87;5.67;;;7.30;1.00;;;;;;5095335;28;20178;-61
2024/01/01 07:44:07;;;;;;;8.67;5.77;;;7.20;1.00;;;;;;5095424;28;20555;-62
2024/01/01 07:46:32;;;;;;;12.73;5.53;;;7.10;99.90;;;;;;5094927;28;20213;-61
2024/01/01 07:49:00;;;;;;;13.93;5.57;;;7.00;99.90;;;;;;5095188;28;20645;-61
2024/01/01 07:51:26;;;;;;;19.33;6.53;;;6.90;1.00;;;;;;5095393;28;20173;-61
2024/01/01 07:53:52;;;;;;;16.43;5.83;;;6.80;1.00;;;;;;5095589;28;20543;-61
2024/01/01 07:56:18;;;;;;;13.73;5.83;;;6.70;99.90;;;;;;5094976;28;20644;-61
2024/01/01 07:58:43;;;;;;;11.57;6.23;;;6.70;1.00;;;;;;5095806;28;20623;-61
2024/01/01 08:01:09;;;;;;;9.50;6.10;;;6.60;41.90;;;;;;5095504;28;20605;-61
2024/01/01 08:03:35;;;;;;;14.67;6.33;;;6.60;99.90;;;;;;5095709;28;20218;-61
2024/01/01 08:06:01;;;;;;;12.13;5.70;;;6.50;99.90;;;;;;5095432;28;20677;-61
2024/01/01 08:08:26;;;;;;;13.00;6.33;;;6.50;99.90;;;;;;5094913;28;20216;-61
2024/01/01 08:10:53;;;;;;;17.97;6.80;;;6.40;99.90;;;;;;5094561;28;20181;-61
2024/01/01 08:13:19;;;;;;;17.67;6.30;;;6.40;99.90;;;;;;5095174;28;20179;-61
2024/01/01 08:15:45;;;;;;;11.13;5.47;;;6.40;99.90;;;;;;5094882;28;20272;-61
2024/01/01 08:18:11;;;;;;;11.30;5.87;;;6.40;99.90;;;;;;5094713;28;20289;-61
2024/01/01 08:20:36;;;;;;;14.97;6.57;;;6.40;99.90;;;;;;5095125;28;20665;-61
2024/01/01 08:23:02;;;;;;;14.43;5.47;;;6.40;99.90;;;;;;5094731;28;20177;-61
2024/01/01 08:25:28;;;;;;;10.87;5.80;;;6.40;99.90;;;;;;5094439;28;20180;-61
2024/01/01 08:27:54;;;;;;;16.30;5.83;;;6.40;99.90;;;;;;5094115;28;20296;-61
2024/01/01 08:30:20;;;;;;;8.80;5.90;;;6.40;99.90;;;;;;5094531;28;20189;-61
2024/01/01 08:32:45;;;;;;;15.50;6.63;;;6.40;99.90;;;;;;5095119;28;20188;-61
2024/01/01 08:35:11;;;;;;;18.50;7.00;;;6.40;99.90;;;;;;5094575;28;20258;-61
2024/01/01 08:37:37;;;;;;;11.90;5.97;;;6.40;99.90;;;;;;5094318;28;20205;-61
2024/01/01 08:40:03;;;;;;;11.27;5.87;;;6.30;99.90;;;;;;5076239;28;20271;-61
2024/01/01 08:42:29;;;;;;;12.13;5.83;;;6.40;99.90;;;;;;5093966;28;20181;-61
2024/01/01 08:44:55;;;;;;;16.57;7.33;;;6.40;99.90;;;;;;5094039;28;20570;-61
2024/01/01 08:47:20;;;;;;;14.10;6.60;;;6.40;99.90;;;;;;5095173;28;20213;-61
2024/01/01 08:49:47;;;;;;;10.40;5.80;;;6.40;99.90;;;;;;5094336;28;20252;-61
2024/01/01 08:52:12;;;;;;;13.47;6.27;;;6.40;99.90;;;;;;5094555;28;20177;-61
2024/01/01 08:54:38;;;;;;;14.97;6.33;;;6.40;99.90;;;;;;5094231;28;20216;-61
2024/01/01 08:57:04;;;;;;;9.93;6.03;;;6.50;99.90;;;;;;5093737;28;20232;-61
2024/01/01 08:59:30;;;;;;;10.37;5.97;;;6.50;99.90;;;;;;5093584;28;20180;-61
2024/01/01 09:01:56;;;;;;;9.80;5.70;;;6.50;99.90;;;;;;5094145;28;20181;-61
2024/01/01 09:04:21;;;;;;;10.23;5.60;;;6.50;99.90;;;;;;5094251;28;20532;-61
2024/01/01 09:06:47;;;;;;;7.73;5.00;;;6.50;99.90;;;;;;5093143;28;20207;-62
2024/01/01 09:09:13;;;;;;;13.40;5.40;;;6.60;99.90;;;;;;5093955;28;20185;-61
2024/01/01 09:11:39;;;;;;;8.33;5.27;;;6.60;99.90;;;;;;5093638;28;20178;-61
2024/01/01 09:14:04;;;;;;;17.70;5.87;;;6.60;99.90;;;;;;5094258;28;20195;-61
2024/01/01 09:16:31;;;;;;;13.27;5.40;;;6.60;99.90;;;;;;5094159;28;20272;-61
2024/01/01 09:18:59;;;;;;;9.20;4.73;;;6.60;17.20;;;;;;5093992;28;20180;-61
2024/01/01 09:21:26;;;;;;;8.73;5.07;;;6.60;1.00;;;;;;5093880;28;20207;-62
2024/01/01 09:23:57;;;;;;;5.87;5.07;;;6.70;1.00;;;;;;5093862;28;20173;-61
2024/01/01 09:26:24;;;;;;;7.17;4.40;;;6.70;1.00;;;;;;5092750;28;20279;-61
2024/01/01 09:28:50;;;;;;;7.47;4.40;;;6.70;1.00;;;;;;5093811;28;20204;-61
2024/01/01 09:31:16;;;;;;;5.60;4.93;;;6.70;1.00;;;;;;5094531;28;20205;-61
2024/01/01 09:33:41;;;;;;;6.20;4.70;;;6.70;1.00;;;;;;5093841;28;20251;-62
2024/01/01 09:36:07;;;;;;;7.83;5.10;;;6.70;1.00;;;;;;5093854;28;20197;-61
2024/01/01 09:38:33;;;;;;;9.13;5.43;;;6.70;1.00;;;;;;5094022;28;20180;-61
2024/01/01 09:40:59;;;;;;;8.30;4.90;;;6.80;1.00;;;;;;5093016;28;20646;-61
2024/01/01 09:43:25;;;;;;;9.07;5.27;;;6.70;1.00;;;;;;5093420;28;20231;-61
2024/01/01 09:45:50;;;;;;;5.77;4.40;;;6.70;1.00;;;;;;5093488;28;20181;-62
2024/01/01 09:48:16;;;;;;;7.03;4.83;;;6.70;1.00;;;;;;5093135;28;20199;-62
2024/01/01 09:50:48;;;;;;;9.30;4.80;;;6.70;1.00;;;;;;5093753;28;20196;-61
2024/01/01 09:53:16;;;;;;;11.20;4.80;;;6.80;1.00;;;;;;5093441;28;20240;-60
2024/01/01 09:55:48;;;;;;;5.30;4.80;;;6.80;99.90;;;;;;5093409;28;20232;-61
2024/01/01 09:58:14;;;;;;;9.63;4.93;;;6.80;99.90;;;;;;5093180;28;20203;-61
2024/01/01 10:00:40;;;;;;;6.20;4.50;;;6.80;99.90;;;;;;5092969;28;20181;-61
2024/01/01 10:03:10;;;;;;;7.97;4.63;;;6.80;99.90;;;;;;5093800;28;20231;-61
2024/01/01 10:05:40;;;;;;;7.80;5.07;;;6.80;99.90;;;;;;5075225;28;20188;-61
2024/01/01 10:08:13;;;;;;;11.70;5.10;;;6.80;99.90;;;;;;5093153;28;20731;-61
2024/01/01 10:10:40;;;;;;;9.67;4.70;;;6.90;99.90;;;;;;5093558;28;20174;-62
2024/01/01 10:13:07;;;;;;;6.13;4.60;;;6.90;1.00;;;;;;5093747;28;20168;-62
2024/01/01 10:15:33;;;;;;;9.17;5.00;;;6.90;1.00;;;;;;5093508;28;20181;-61
2024/01/01 10:18:16;;;;;;;10.50;4.93;;;6.90;1.00;;;;;;5093659;28;20545;-62
2024/01/01 10:20:43;;;;;;;8.63;4.90;;;6.80;1.00;;;;;;5092875;28;20248;-61
2024/01/01 10:23:20;;;;;;;6.23;4.97;;;6.80;1.00;;;;;;5093059;28;20549;-61
2024/01/01 10:26:03;;;;;;;13.40;4.93;;;6.80;1.00;;;;;;5092994;28;20188;-61
2024/01/01 10:28:31;;;;;;;7.40;5.13;;;6.80;1.00;;;;;;5093215;28;20200;-61
2024/01/01 10:30:59;;;;;;;8.23;5.23;;;6.70;1.00;;;;;;5093111;28;20174;-61
2024/01/01 10:33:27;;;;;;;9.73;5.10;;;6.70;1.00;;;;;;5092809;28;20169;-62
2024/01/01 10:35:53;;;;;;;6.60;4.80;;;6.70;1.00;;;;;;5094189;28;20177;-61
2024/01/01 10:38:20;;;;;;;8.83;4.97;;;6.70;1.00;;;;;;5096751;28;20268;-62
2024/01/01 10:40:46;;;;;;;8.53;6.43;;;6.80;1.00;;;;;;5096817;28;20188;-61
2024/01/01 10:43:13;;;;;;;6.53;4.80;;;6.80;1.00;;;;;;5096671;28;20185;-62
2024/01/01 10:45:39;;;;;;;8.80;5.70;;;6.80;1.00;;;;;;5096582;28;20252;-62
2024/01/01 10:48:06;;;;;;;7.60;4.30;;;6.80;1.00;;;;;;5096595;28;20221;-61
2024/01/01 10:50:37;;;;;;;8.07;5.87;;;6.80;1.00;;;;;;5096503;28;20177;-62
2024/01/01 10:53:33;;;;;;;8.77;4.97;;;6.90;1.00;;;;;;5096192;28;20165;-62
2024/01/01 10:56:13;;;;;;;7.27;5.00;;;6.90;1.00;;;;;;5077645;28;20205;-62
2024/01/01 10:58:45;;;;;;;15.00;7.63;;;7.00;1.00;;;;;;5096730;28;20638;-62
2024/01/01 11:01:14;;;;;;;7.57;5.10;;;6.90;1.00;;;;;;5096512;28;20622;-62
2024/01/01 11:03:41;;;;;;;8.60;4.97;;;6.90;1.00;;;;;;5096553;28;20227;-62
2024/01/01 11:06:35;;;;;;;10.00;6.17;;;6.90;1.00;;;;;;5096181;28;20201;-61
2024/01/01 11:09:19;;;;;;;9.43;5.23;;;6.90;1.00;;;;;;5096326;28;20208;-62
2024/01/01 11:11:51;;;;;;;6.60;5.20;;;7.00;1.00;;;;;;5095805;28;20631;-63
2024/01/01 11:14:25;;;;;;;9.47;4.97;;;7.00;1.00;;;;;;5096330;28;20181;-62
2024/01/01 11:16:52;;;;;;;11.43;5.83;;;7.00;1.00;;;;;;5096020;28;20216;-62
2024/01/01 11:19:42;;;;;;;8.77;5.50;;;7.10;99.90;;;;;;5096184;28;20563;-62
2024/01/01 11:22:20;;;;;;;9.07;5.03;;;7.10;99.90;;;;;;5086003;28;20189;-62
2024/01/01 11:24:47;;;;;;;13.50;4.93;;;7.10;99.90;;;;;;5095809;28;20173;-62
2024/01/01 11:27:35;;;;;;;8.03;4.97;;;7.20;1.00;;;;;;5095356;28;20205;-61
2024/01/01 11:30:08;;;;;;;9.00;4.63;;;7.20;1.00;;;;;;5095937;28;20245;-61
2024/01/01 11:32:37;;;;;;;9.67;5.60;;;7.20;1.00;;;;;;5095768;28;20238;-61
2024/01/01 11:35:13;;;;;;;7.50;5.27;;;7.30;99.90;;;;;;5095726;28;20173;-61
2024/01/01 11:37:44;;;;;;;7.73;4.97;;;7.30;99.90;;;;;;5095521;28;20196;-61
2024/01/01 11:40:11;;;;;;;7.33;5.10;;;7.30;1.00;;;;;;5095594;28;20178;-62
2024/01/01 11:42:38;;;;;;;6.30;4.70;;;7.30;99.90;;;;;;5095569;28;20177;-62
2024/01/01 11:45:17;;;;;;;6.20;4.37;;;7.30;99.90;;;;;;5095370;28;20177;-62
2024/01/01 11:47:44;;;;;;;7.70;5.10;;;7.30;1.00;;;;;;5094749;28;20207;-61
2024/01/01 11:50:11;;;;;;;13.67;5.73;;;7.30;1.00;;;;;;5094599;28;20320;-60
2024/01/01 11:52:37;;;;;;;8.03;5.00;;;7.40;99.90;;;;;;5094627;28;20177;-61
2024/01/01 11:55:04;;;;;;;7.80;5.00;;;7.30;99.90;;;;;;5095000;28;20250;-61
2024/01/01 11:57:30;;;;;;;10.67;4.60;;;7.40;2.80;;;;;;5094231;28;20694;-61
2024/01/01 11:59:56;;;;;;;10.47;5.27;;;7.40;1.00;;;;;;5095370;28;20178;-61
2024/01/01 12:02:23;;;;;;;8.87;5.90;;;7.40;1.00;;;;;;5095182;28;20263;-60
2024/01/01 12:04:51;;;;;;;7.13;4.93;;;7.40;99.90;;;;;;5095374;28;20645;-61
2024/01/01 12:07:29;;;;;;;6.77;5.10;;;7.50;99.90;;;;;;5094892;28;20236;-60
2024/01/01 12:10:07;;;;;;;12.27;5.47;;;7.50;3.50;;;;;;5094805;28;20176;-61
2024/01/01 12:12:43;;;;;;;11.30;4.90;;;7.40;59.60;;;;;;5094596;28;20168;-61
2024/01/01 12:15:21;;;;;;;7.70;4.80;;;7.40;99.90;;;;;;5094765;28;20180;-61
2024/01/01 12:17:51;;;;;;;15.90;5.83;;;7.40;1.00;;;;;;5094874;28;20279;-62
2024/01/01 12:20:19;;;;;;;11.40;5.47;;;7.40;99.90;;;;;;5094758;28;20170;-61
2024/01/01 12:22:48;;;;;;;9.47;5.00;;;7.40;1.00;;;;;;5094402;28;20653;-61
2024/01/01 12:25:16;;;;;;;15.57;5.50;;;7.50;1.00;;;;;;5094686;28;20576;-61
2024/01/01 12:27:42;;;;;;;11.37;4.87;;;7.50;1.00;;;;;;5094684;28;20321;-63
2024/01/01 12:30:08;;;;;;;12.07;5.50;;;7.50;1.00;;;;;;5094441;28;20239;-61
2024/01/01 12:32:34;;;;;;;8.00;5.13;;;7.50;99.90;;;;;;5094804;28;20158;-61
2024/01/01 12:35:00;;;;;;;9.13;5.20;;;7.50;99.90;;;;;;5094520;28;20535;-62
2024/01/01 12:37:26;;;;;;;12.03;5.00;;;7.50;1.00;;;;;;5095043;28;20192;-61
2024/01/01 12:39:52;;;;;;;8.07;5.23;;;7.60;99.90;;;;;;5094707;28;20292;-61
2024/01/01 12:42:18;;;;;;;9.27;4.73;;;7.60;99.90;;;;;;5094029;28;20267;-62
2024/01/01 12:44:44;;;;;;;13.63;5.20;;;7.60;1.00;;;;;;5094423;28;20279;-62
2024/01/01 12:47:10;;;;;;;15.70;6.00;;;7.60;99.90;;;;;;5093632;28;20636;-61
2024/01/01 12:49:36;;;;;;;15.50;5.00;;;7.50;24.10;;;;;;5094196;28;20169;-61
2024/01/01 12:52:03;;;;;;;10.17;4.93;;;7.50;99.90;;;;;;5094389;28;20532;-61